sensor_id;sensor_type;location;lat;lon;timestamp;P1;durP1;ratioP1;P2;durP2;ratioP2
37945;SDS011;23769;52.478;13.448;2023-05-07T00:00:06;17.13;;;11.63;;
37945;SDS011;23769;52.478;13.448;2023-05-07T00:02:33;18.23;;;12.48;;
37945;SDS011;23769;52.478;13.448;2023-05-07T00:05:04;17.23;;;12.10;;
37945;SDS011;23769;52.478;13.448;2023-05-07T00:07:31;15.63;;;12.60;;
37945;SDS011;23769;52.478;13.448;2023-05-07T00:09:58;17.27;;;11.90;;
37945;SDS011;23769;52.478;13.448;2023-05-07T00:12:25;17.30;;;11.63;;
37945;SDS011;23769;52.478;13.448;2023-05-07T00:14:53;16.27;;;11.40;;
37945;SDS011;23769;52.478;13.448;2023-05-07T00:17:20;16.67;;;12.50;;
37945;SDS011;23769;52.478;13.448;2023-05-07T00:19:47;16.15;;;10.70;;
37945;SDS011;23769;52.478;13.448;2023-05-07T00:22:15;16.45;;;11.20;;
37945;SDS011;23769;52.478;13.448;2023-05-07T00:24:43;16.58;;;11.98;;
37945;SDS011;23769;52.478;13.448;2023-05-07T00:27:10;15.13;;;10.38;;
37945;SDS011;23769;52.478;13.448;2023-05-07T00:29:37;14.38;;;10.43;;
37945;SDS011;23769;52.478;13.448;2023-05-07T00:32:04;13.02;;;10.13;;
37945;SDS011;23769;52.478;13.448;2023-05-07T00:34:31;14.80;;;10.65;;
37945;SDS011;23769;52.478;13.448;2023-05-07T00:36:59;13.45;;;10.75;;
37945;SDS011;23769;52.478;13.448;2023-05-07T00:39:27;13.63;;;9.95;;
37945;SDS011;23769;52.478;13.448;2023-05-07T00:41:54;13.50;;;10.85;;
37945;SDS011;23769;52.478;13.448;2023-05-07T00:44:22;13.85;;;10.80;;
37945;SDS011;23769;52.478;13.448;2023-05-07T00:46:49;14.38;;;10.40;;
37945;SDS011;23769;52.478;13.448;2023-05-07T00:49:19;15.88;;;11.40;;
37945;SDS011;23769;52.478;13.448;2023-05-07T00:51:46;14.30;;;11.32;;
37945;SDS011;23769;52.478;13.448;2023-05-07T00:54:16;14.43;;;11.07;;
37945;SDS011;23769;52.478;13.448;2023-05-07T00:57:07;15.68;;;12.10;;
37945;SDS011;23769;52.478;13.448;2023-05-07T00:59:36;16.48;;;11.50;;
37945;SDS011;23769;52.478;13.448;2023-05-07T01:02:05;16.98;;;11.38;;
37945;SDS011;23769;52.478;13.448;2023-05-07T01:04:35;16.20;;;11.95;;
37945;SDS011;23769;52.478;13.448;2023-05-07T01:07:06;14.70;;;11.73;;
37945;SDS011;23769;52.478;13.448;2023-05-07T01:09:34;18.13;;;11.70;;
37945;SDS011;23769;52.478;13.448;2023-05-07T01:12:06;14.55;;;10.77;;
37945;SDS011;23769;52.478;13.448;2023-05-07T01:14:34;15.07;;;12.00;;
37945;SDS011;23769;52.478;13.448;2023-05-07T01:17:03;15.57;;;11.63;;
37945;SDS011;23769;52.478;13.448;2023-05-07T01:19:31;12.98;;;10.63;;
37945;SDS011;23769;52.478;13.448;2023-05-07T01:22:01;15.27;;;10.43;;
37945;SDS011;23769;52.478;13.448;2023-05-07T01:24:31;16.15;;;10.82;;
37945;SDS011;23769;52.478;13.448;2023-05-07T01:27:01;14.93;;;11.13;;
37945;SDS011;23769;52.478;13.448;2023-05-07T01:29:28;17.02;;;11.45;;
37945;SDS011;23769;52.478;13.448;2023-05-07T01:31:56;14.93;;;11.25;;
37945;SDS011;23769;52.478;13.448;2023-05-07T01:34:24;14.63;;;11.23;;
37945;SDS011;23769;52.478;13.448;2023-05-07T01:36:54;18.27;;;11.07;;
37945;SDS011;23769;52.478;13.448;2023-05-07T01:39:23;14.80;;;10.02;;
37945;SDS011;23769;52.478;13.448;2023-05-07T01:41:55;12.63;;;9.77;;
37945;SDS011;23769;52.478;13.448;2023-05-07T01:44:25;15.10;;;11.20;;
37945;SDS011;23769;52.478;13.448;2023-05-07T01:47:00;14.10;;;10.80;;
37945;SDS011;23769;52.478;13.448;2023-05-07T01:49:28;14.63;;;10.70;;
37945;SDS011;23769;52.478;13.448;2023-05-07T01:51:58;12.60;;;10.10;;
37945;SDS011;23769;52.478;13.448;2023-05-07T01:54:25;14.32;;;11.00;;
37945;SDS011;23769;52.478;13.448;2023-05-07T01:56:57;13.80;;;10.70;;
37945;SDS011;23769;52.478;13.448;2023-05-07T01:59:24;12.38;;;9.95;;
37945;SDS011;23769;52.478;13.448;2023-05-07T02:01:51;13.77;;;10.60;;
37945;SDS011;23769;52.478;13.448;2023-05-07T02:04:19;15.65;;;9.90;;
37945;SDS011;23769;52.478;13.448;2023-05-07T02:06:47;14.77;;;10.13;;
37945;SDS011;23769;52.478;13.448;2023-05-07T02:09:17;15.48;;;10.50;;
37945;SDS011;23769;52.478;13.448;2023-05-07T02:11:45;13.65;;;10.57;;
37945;SDS011;23769;52.478;13.448;2023-05-07T02:14:13;14.63;;;10.10;;
37945;SDS011;23769;52.478;13.448;2023-05-07T02:16:40;13.95;;;10.70;;
37945;SDS011;23769;52.478;13.448;2023-05-07T02:19:08;17.60;;;10.90;;
37945;SDS011;23769;52.478;13.448;2023-05-07T02:21:35;14.25;;;10.88;;
37945;SDS011;23769;52.478;13.448;2023-05-07T02:24:02;14.75;;;10.38;;
37945;SDS011;23769;52.478;13.448;2023-05-07T02:26:29;17.63;;;11.20;;
37945;SDS011;23769;52.478;13.448;2023-05-07T02:28:56;16.85;;;11.50;;
37945;SDS011;23769;52.478;13.448;2023-05-07T02:31:25;14.77;;;10.55;;
37945;SDS011;23769;52.478;13.448;2023-05-07T02:33:52;14.10;;;10.45;;
37945;SDS011;23769;52.478;13.448;2023-05-07T02:36:19;13.30;;;11.40;;
37945;SDS011;23769;52.478;13.448;2023-05-07T02:38:46;17.05;;;12.05;;
37945;SDS011;23769;52.478;13.448;2023-05-07T02:41:14;15.05;;;10.40;;
37945;SDS011;23769;52.478;13.448;2023-05-07T02:43:41;15.45;;;10.98;;
37945;SDS011;23769;52.478;13.448;2023-05-07T02:46:08;16.10;;;11.23;;
37945;SDS011;23769;52.478;13.448;2023-05-07T02:48:37;14.75;;;10.45;;
37945;SDS011;23769;52.478;13.448;2023-05-07T02:51:04;15.15;;;11.38;;
37945;SDS011;23769;52.478;13.448;2023-05-07T02:53:31;13.32;;;10.68;;
37945;SDS011;23769;52.478;13.448;2023-05-07T02:55:59;14.52;;;10.25;;
37945;SDS011;23769;52.478;13.448;2023-05-07T02:58:27;17.17;;;11.20;;
37945;SDS011;23769;52.478;13.448;2023-05-07T03:00:54;13.65;;;10.63;;
37945;SDS011;23769;52.478;13.448;2023-05-07T03:03:22;12.95;;;9.63;;
37945;SDS011;23769;52.478;13.448;2023-05-07T03:05:52;13.77;;;10.45;;
37945;SDS011;23769;52.478;13.448;2023-05-07T03:08:19;12.90;;;9.82;;
37945;SDS011;23769;52.478;13.448;2023-05-07T03:10:46;13.77;;;10.27;;
37945;SDS011;23769;52.478;13.448;2023-05-07T03:13:14;14.48;;;10.93;;
37945;SDS011;23769;52.478;13.448;2023-05-07T03:15:41;16.25;;;10.15;;
37945;SDS011;23769;52.478;13.448;2023-05-07T03:18:08;15.32;;;10.27;;
37945;SDS011;23769;52.478;13.448;2023-05-07T03:20:35;12.70;;;9.77;;
37945;SDS011;23769;52.478;13.448;2023-05-07T03:23:04;15.73;;;9.48;;
37945;SDS011;23769;52.478;13.448;2023-05-07T03:25:31;14.95;;;10.13;;
37945;SDS011;23769;52.478;13.448;2023-05-07T03:27:58;13.07;;;9.63;;
37945;SDS011;23769;52.478;13.448;2023-05-07T03:30:28;16.17;;;10.65;;
37945;SDS011;23769;52.478;13.448;2023-05-07T03:32:55;13.05;;;10.35;;
37945;SDS011;23769;52.478;13.448;2023-05-07T03:35:22;12.63;;;9.95;;
37945;SDS011;23769;52.478;13.448;2023-05-07T03:37:49;12.68;;;9.63;;
37945;SDS011;23769;52.478;13.448;2023-05-07T03:40:18;13.80;;;10.18;;
37945;SDS011;23769;52.478;13.448;2023-05-07T03:42:45;16.95;;;11.52;;
37945;SDS011;23769;52.478;13.448;2023-05-07T03:45:12;14.95;;;10.35;;
37945;SDS011;23769;52.478;13.448;2023-05-07T03:47:40;14.70;;;10.13;;
37945;SDS011;23769;52.478;13.448;2023-05-07T03:50:08;14.48;;;10.73;;
37945;SDS011;23769;52.478;13.448;2023-05-07T03:52:35;15.70;;;10.40;;
37945;SDS011;23769;52.478;13.448;2023-05-07T03:55:02;15.18;;;10.65;;
37945;SDS011;23769;52.478;13.448;2023-05-07T03:57:32;12.57;;;9.73;;
37945;SDS011;23769;52.478;13.448;2023-05-07T03:59:59;12.10;;;10.20;;
37945;SDS011;23769;52.478;13.448;2023-05-07T04:02:27;17.05;;;9.68;;
37945;SDS011;23769;52.478;13.448;2023-05-07T04:04:56;13.25;;;10.38;;
37945;SDS011;23769;52.478;13.448;2023-05-07T04:07:23;12.35;;;9.20;;
37945;SDS011;23769;52.478;13.448;2023-05-07T04:09:50;14.35;;;9.75;;
37945;SDS011;23769;52.478;13.448;2023-05-07T04:12:17;13.68;;;10.00;;
37945;SDS011;23769;52.478;13.448;2023-05-07T04:14:46;15.02;;;10.07;;
37945;SDS011;23769;52.478;13.448;2023-05-07T04:17:13;17.83;;;10.10;;
37945;SDS011;23769;52.478;13.448;2023-05-07T04:19:40;13.73;;;10.05;;
37945;SDS011;23769;52.478;13.448;2023-05-07T04:22:10;13.20;;;9.90;;
37945;SDS011;23769;52.478;13.448;2023-05-07T04:24:37;12.90;;;9.48;;
37945;SDS011;23769;52.478;13.448;2023-05-07T04:27:05;12.43;;;8.65;;
37945;SDS011;23769;52.478;13.448;2023-05-07T04:29:32;11.55;;;8.77;;
37945;SDS011;23769;52.478;13.448;2023-05-07T04:32:01;16.13;;;9.13;;
37945;SDS011;23769;52.478;13.448;2023-05-07T04:34:28;11.27;;;8.57;;
37945;SDS011;23769;52.478;13.448;2023-05-07T04:36:57;11.98;;;8.05;;
37945;SDS011;23769;52.478;13.448;2023-05-07T04:39:24;13.90;;;8.48;;
37945;SDS011;23769;52.478;13.448;2023-05-07T04:41:51;11.52;;;8.35;;
37945;SDS011;23769;52.478;13.448;2023-05-07T04:44:19;9.20;;;7.45;;
37945;SDS011;23769;52.478;13.448;2023-05-07T04:46:46;11.02;;;8.43;;
37945;SDS011;23769;52.478;13.448;2023-05-07T04:49:15;13.32;;;8.30;;
37945;SDS011;23769;52.478;13.448;2023-05-07T04:51:42;10.88;;;7.70;;
37945;SDS011;23769;52.478;13.448;2023-05-07T04:54:09;13.30;;;7.60;;
37945;SDS011;23769;52.478;13.448;2023-05-07T04:56:36;8.40;;;7.18;;
37945;SDS011;23769;52.478;13.448;2023-05-07T04:59:03;10.45;;;7.72;;
37945;SDS011;23769;52.478;13.448;2023-05-07T05:01:31;11.80;;;7.32;;
37945;SDS011;23769;52.478;13.448;2023-05-07T05:03:58;13.13;;;7.25;;
37945;SDS011;23769;52.478;13.448;2023-05-07T05:06:27;10.73;;;6.68;;
37945;SDS011;23769;52.478;13.448;2023-05-07T05:08:54;8.48;;;6.60;;
37945;SDS011;23769;52.478;13.448;2023-05-07T05:11:21;9.57;;;6.57;;
37945;SDS011;23769;52.478;13.448;2023-05-07T05:13:49;11.07;;;6.35;;
37945;SDS011;23769;52.478;13.448;2023-05-07T05:16:16;9.02;;;5.97;;
37945;SDS011;23769;52.478;13.448;2023-05-07T05:18:43;8.05;;;5.63;;
37945;SDS011;23769;52.478;13.448;2023-05-07T05:21:10;8.80;;;6.40;;
37945;SDS011;23769;52.478;13.448;2023-05-07T05:23:39;10.20;;;5.90;;
37945;SDS011;23769;52.478;13.448;2023-05-07T05:26:06;10.85;;;7.15;;
37945;SDS011;23769;52.478;13.448;2023-05-07T05:28:33;10.10;;;6.75;;
37945;SDS011;23769;52.478;13.448;2023-05-07T05:31:00;9.90;;;6.85;;
37945;SDS011;23769;52.478;13.448;2023-05-07T05:33:28;8.07;;;6.43;;
37945;SDS011;23769;52.478;13.448;2023-05-07T05:35:55;9.98;;;6.78;;
37945;SDS011;23769;52.478;13.448;2023-05-07T05:38:22;14.07;;;6.72;;
37945;SDS011;23769;52.478;13.448;2023-05-07T05:40:50;8.55;;;6.38;;
37945;SDS011;23769;52.478;13.448;2023-05-07T05:43:18;11.15;;;7.57;;
37945;SDS011;23769;52.478;13.448;2023-05-07T05:45:45;12.43;;;6.78;;
37945;SDS011;23769;52.478;13.448;2023-05-07T05:48:12;7.53;;;5.78;;
37945;SDS011;23769;52.478;13.448;2023-05-07T05:50:41;8.63;;;6.63;;
37945;SDS011;23769;52.478;13.448;2023-05-07T05:53:08;9.13;;;6.68;;
37945;SDS011;23769;52.478;13.448;2023-05-07T05:55:35;11.43;;;7.30;;
37945;SDS011;23769;52.478;13.448;2023-05-07T05:58:04;9.02;;;6.53;;
37945;SDS011;23769;52.478;13.448;2023-05-07T06:00:31;8.43;;;6.30;;
37945;SDS011;23769;52.478;13.448;2023-05-07T06:02:58;7.60;;;5.65;;
37945;SDS011;23769;52.478;13.448;2023-05-07T06:05:26;9.68;;;5.85;;
37945;SDS011;23769;52.478;13.448;2023-05-07T06:07:53;9.45;;;5.47;;
37945;SDS011;23769;52.478;13.448;2023-05-07T06:10:20;8.93;;;6.13;;
37945;SDS011;23769;52.478;13.448;2023-05-07T06:12:47;9.65;;;6.53;;
37945;SDS011;23769;52.478;13.448;2023-05-07T06:15:16;10.63;;;7.72;;
37945;SDS011;23769;52.478;13.448;2023-05-07T06:17:43;8.48;;;6.35;;
37945;SDS011;23769;52.478;13.448;2023-05-07T06:20:10;10.55;;;6.40;;
37945;SDS011;23769;52.478;13.448;2023-05-07T06:22:37;8.80;;;5.72;;
37945;SDS011;23769;52.478;13.448;2023-05-07T06:25:05;9.27;;;6.05;;
37945;SDS011;23769;52.478;13.448;2023-05-07T06:27:32;10.77;;;7.80;;
37945;SDS011;23769;52.478;13.448;2023-05-07T06:30:00;11.65;;;7.82;;
37945;SDS011;23769;52.478;13.448;2023-05-07T06:32:28;7.28;;;5.85;;
37945;SDS011;23769;52.478;13.448;2023-05-07T06:34:56;9.38;;;6.22;;
37945;SDS011;23769;52.478;13.448;2023-05-07T06:37:23;10.18;;;6.20;;
37945;SDS011;23769;52.478;13.448;2023-05-07T06:39:50;6.72;;;5.55;;
37945;SDS011;23769;52.478;13.448;2023-05-07T06:42:17;8.55;;;5.93;;
37945;SDS011;23769;52.478;13.448;2023-05-07T06:44:44;6.30;;;5.10;;
37945;SDS011;23769;52.478;13.448;2023-05-07T06:47:11;8.70;;;5.28;;
37945;SDS011;23769;52.478;13.448;2023-05-07T06:49:40;7.72;;;5.88;;
37945;SDS011;23769;52.478;13.448;2023-05-07T06:52:07;10.15;;;5.60;;
37945;SDS011;23769;52.478;13.448;2023-05-07T06:54:35;9.60;;;5.47;;
37945;SDS011;23769;52.478;13.448;2023-05-07T06:57:02;7.30;;;5.60;;
37945;SDS011;23769;52.478;13.448;2023-05-07T06:59:29;8.48;;;5.75;;
37945;SDS011;23769;52.478;13.448;2023-05-07T07:01:56;8.00;;;4.80;;
37945;SDS011;23769;52.478;13.448;2023-05-07T07:04:23;6.60;;;4.75;;
37945;SDS011;23769;52.478;13.448;2023-05-07T07:06:53;8.30;;;4.70;;
37945;SDS011;23769;52.478;13.448;2023-05-07T07:09:21;5.10;;;3.92;;
37945;SDS011;23769;52.478;13.448;2023-05-07T07:11:48;6.40;;;3.75;;
37945;SDS011;23769;52.478;13.448;2023-05-07T07:14:16;6.97;;;4.07;;
37945;SDS011;23769;52.478;13.448;2023-05-07T07:16:43;6.50;;;3.88;;
37945;SDS011;23769;52.478;13.448;2023-05-07T07:19:11;6.68;;;3.75;;
37945;SDS011;23769;52.478;13.448;2023-05-07T07:21:40;4.93;;;3.40;;
37945;SDS011;23769;52.478;13.448;2023-05-07T07:24:08;5.10;;;3.35;;
37945;SDS011;23769;52.478;13.448;2023-05-07T07:26:35;4.55;;;3.05;;
37945;SDS011;23769;52.478;13.448;2023-05-07T07:29:02;4.85;;;3.80;;
37945;SDS011;23769;52.478;13.448;2023-05-07T07:31:30;3.67;;;2.97;;
37945;SDS011;23769;52.478;13.448;2023-05-07T07:33:57;3.92;;;3.30;;
37945;SDS011;23769;52.478;13.448;2023-05-07T07:36:24;6.43;;;3.78;;
37945;SDS011;23769;52.478;13.448;2023-05-07T07:38:52;4.55;;;3.53;;
37945;SDS011;23769;52.478;13.448;2023-05-07T07:41:21;6.63;;;3.90;;
37945;SDS011;23769;52.478;13.448;2023-05-07T07:43:48;6.53;;;3.92;;
37945;SDS011;23769;52.478;13.448;2023-05-07T07:46:15;6.13;;;4.18;;
37945;SDS011;23769;52.478;13.448;2023-05-07T07:48:42;5.60;;;4.05;;
37945;SDS011;23769;52.478;13.448;2023-05-07T07:51:10;8.50;;;5.25;;
37945;SDS011;23769;52.478;13.448;2023-05-07T07:53:37;4.85;;;3.92;;
37945;SDS011;23769;52.478;13.448;2023-05-07T07:56:06;4.93;;;3.70;;
37945;SDS011;23769;52.478;13.448;2023-05-07T07:58:34;5.13;;;3.60;;
37945;SDS011;23769;52.478;13.448;2023-05-07T08:01:03;5.13;;;3.70;;
37945;SDS011;23769;52.478;13.448;2023-05-07T08:03:30;5.07;;;3.05;;
37945;SDS011;23769;52.478;13.448;2023-05-07T08:05:58;6.07;;;4.35;;
37945;SDS011;23769;52.478;13.448;2023-05-07T08:08:25;4.53;;;3.38;;
37945;SDS011;23769;52.478;13.448;2023-05-07T08:10:52;4.45;;;3.22;;
37945;SDS011;23769;52.478;13.448;2023-05-07T08:13:19;3.88;;;2.92;;
37945;SDS011;23769;52.478;13.448;2023-05-07T08:15:48;7.68;;;3.10;;
37945;SDS011;23769;52.478;13.448;2023-05-07T08:18:15;4.90;;;3.47;;
37945;SDS011;23769;52.478;13.448;2023-05-07T08:20:42;3.40;;;2.22;;
37945;SDS011;23769;52.478;13.448;2023-05-07T08:23:09;4.68;;;2.75;;
37945;SDS011;23769;52.478;13.448;2023-05-07T08:25:36;4.60;;;3.13;;
37945;SDS011;23769;52.478;13.448;2023-05-07T08:28:04;4.75;;;3.13;;
37945;SDS011;23769;52.478;13.448;2023-05-07T08:30:31;4.57;;;2.70;;
37945;SDS011;23769;52.478;13.448;2023-05-07T08:32:59;3.20;;;2.70;;
37945;SDS011;23769;52.478;13.448;2023-05-07T08:35:27;5.35;;;3.05;;
37945;SDS011;23769;52.478;13.448;2023-05-07T08:37:54;5.03;;;3.55;;
37945;SDS011;23769;52.478;13.448;2023-05-07T08:40:21;3.65;;;2.63;;
37945;SDS011;23769;52.478;13.448;2023-05-07T08:42:49;3.42;;;2.70;;
37945;SDS011;23769;52.478;13.448;2023-05-07T08:45:19;4.90;;;2.53;;
37945;SDS011;23769;52.478;13.448;2023-05-07T08:47:47;2.92;;;2.25;;
37945;SDS011;23769;52.478;13.448;2023-05-07T08:50:16;3.25;;;2.47;;
37945;SDS011;23769;52.478;13.448;2023-05-07T08:52:44;4.80;;;2.58;;
37945;SDS011;23769;52.478;13.448;2023-05-07T08:55:11;2.60;;;2.13;;
37945;SDS011;23769;52.478;13.448;2023-05-07T08:57:40;4.97;;;2.97;;
37945;SDS011;23769;52.478;13.448;2023-05-07T09:00:07;4.40;;;2.78;;
37945;SDS011;23769;52.478;13.448;2023-05-07T09:02:35;3.85;;;2.45;;
37945;SDS011;23769;52.478;13.448;2023-05-07T09:05:02;5.82;;;3.05;;
37945;SDS011;23769;52.478;13.448;2023-05-07T09:07:30;4.10;;;2.65;;
37945;SDS011;23769;52.478;13.448;2023-05-07T09:09:58;4.90;;;2.95;;
37945;SDS011;23769;52.478;13.448;2023-05-07T09:12:25;4.22;;;2.60;;
37945;SDS011;23769;52.478;13.448;2023-05-07T09:14:52;4.47;;;2.90;;
37945;SDS011;23769;52.478;13.448;2023-05-07T09:17:19;3.45;;;2.45;;
37945;SDS011;23769;52.478;13.448;2023-05-07T09:19:46;4.78;;;2.80;;
37945;SDS011;23769;52.478;13.448;2023-05-07T09:22:14;6.65;;;2.70;;
37945;SDS011;23769;52.478;13.448;2023-05-07T09:24:42;3.60;;;2.58;;
37945;SDS011;23769;52.478;13.448;2023-05-07T09:27:13;3.03;;;2.60;;
37945;SDS011;23769;52.478;13.448;2023-05-07T09:29:41;5.03;;;2.42;;
37945;SDS011;23769;52.478;13.448;2023-05-07T09:32:08;6.97;;;2.85;;
37945;SDS011;23769;52.478;13.448;2023-05-07T09:34:35;3.70;;;2.67;;
37945;SDS011;23769;52.478;13.448;2023-05-07T09:37:02;4.45;;;2.83;;
37945;SDS011;23769;52.478;13.448;2023-05-07T09:39:38;3.00;;;2.60;;
37945;SDS011;23769;52.478;13.448;2023-05-07T09:42:07;4.13;;;2.78;;
37945;SDS011;23769;52.478;13.448;2023-05-07T09:44:35;4.90;;;2.40;;
37945;SDS011;23769;52.478;13.448;2023-05-07T09:47:03;4.20;;;2.47;;
37945;SDS011;23769;52.478;13.448;2023-05-07T09:49:33;5.68;;;2.55;;
37945;SDS011;23769;52.478;13.448;2023-05-07T09:52:00;3.13;;;2.38;;
37945;SDS011;23769;52.478;13.448;2023-05-07T09:54:28;2.78;;;1.98;;
37945;SDS011;23769;52.478;13.448;2023-05-07T09:56:56;7.95;;;2.00;;
37945;SDS011;23769;52.478;13.448;2023-05-07T09:59:25;3.33;;;2.13;;
37945;SDS011;23769;52.478;13.448;2023-05-07T10:01:52;5.82;;;2.45;;
37945;SDS011;23769;52.478;13.448;2023-05-07T10:04:23;8.48;;;1.85;;
37945;SDS011;23769;52.478;13.448;2023-05-07T10:06:51;3.15;;;2.20;;
37945;SDS011;23769;52.478;13.448;2023-05-07T10:09:20;3.25;;;1.85;;
37945;SDS011;23769;52.478;13.448;2023-05-07T10:11:48;4.32;;;2.08;;
37945;SDS011;23769;52.478;13.448;2023-05-07T10:14:15;2.40;;;1.60;;
37945;SDS011;23769;52.478;13.448;2023-05-07T10:16:44;2.33;;;1.60;;
37945;SDS011;23769;52.478;13.448;2023-05-07T10:19:12;2.45;;;1.60;;
37945;SDS011;23769;52.478;13.448;2023-05-07T10:21:42;2.75;;;1.67;;
37945;SDS011;23769;52.478;13.448;2023-05-07T10:24:12;2.05;;;1.55;;
37945;SDS011;23769;52.478;13.448;2023-05-07T10:26:40;4.00;;;1.50;;
37945;SDS011;23769;52.478;13.448;2023-05-07T10:29:11;3.38;;;1.70;;
37945;SDS011;23769;52.478;13.448;2023-05-07T10:31:49;3.67;;;1.60;;
37945;SDS011;23769;52.478;13.448;2023-05-07T10:34:20;2.53;;;1.70;;
37945;SDS011;23769;52.478;13.448;2023-05-07T10:36:48;1.27;;;1.17;;
37945;SDS011;23769;52.478;13.448;2023-05-07T10:39:17;1.83;;;1.40;;
37945;SDS011;23769;52.478;13.448;2023-05-07T10:41:46;2.35;;;1.83;;
37945;SDS011;23769;52.478;13.448;2023-05-07T10:44:24;1.85;;;1.35;;
37945;SDS011;23769;52.478;13.448;2023-05-07T10:47:03;2.70;;;1.35;;
37945;SDS011;23769;52.478;13.448;2023-05-07T10:49:32;2.20;;;1.42;;
37945;SDS011;23769;52.478;13.448;2023-05-07T10:52:12;2.38;;;1.35;;
37945;SDS011;23769;52.478;13.448;2023-05-07T10:54:40;2.60;;;1.33;;
37945;SDS011;23769;52.478;13.448;2023-05-07T10:59:54;2.33;;;1.45;;
37945;SDS011;23769;52.478;13.448;2023-05-07T11:02:21;2.35;;;1.45;;
37945;SDS011;23769;52.478;13.448;2023-05-07T11:05:02;2.60;;;1.52;;
37945;SDS011;23769;52.478;13.448;2023-05-07T11:07:46;2.15;;;1.30;;
37945;SDS011;23769;52.478;13.448;2023-05-07T11:10:20;2.58;;;1.52;;
37945;SDS011;23769;52.478;13.448;2023-05-07T11:12:53;2.90;;;1.50;;
37945;SDS011;23769;52.478;13.448;2023-05-07T11:15:43;3.03;;;1.40;;
37945;SDS011;23769;52.478;13.448;2023-05-07T11:18:11;3.20;;;1.60;;
37945;SDS011;23769;52.478;13.448;2023-05-07T11:20:46;2.25;;;1.50;;
37945;SDS011;23769;52.478;13.448;2023-05-07T11:25:59;4.05;;;2.13;;
37945;SDS011;23769;52.478;13.448;2023-05-07T11:28:27;2.53;;;1.80;;
37945;SDS011;23769;52.478;13.448;2023-05-07T11:30:54;2.03;;;1.33;;
37945;SDS011;23769;52.478;13.448;2023-05-07T11:33:23;1.42;;;1.30;;
37945;SDS011;23769;52.478;13.448;2023-05-07T11:35:52;2.83;;;1.70;;
37945;SDS011;23769;52.478;13.448;2023-05-07T11:38:20;2.47;;;1.60;;
37945;SDS011;23769;52.478;13.448;2023-05-07T11:40:50;1.88;;;1.27;;
37945;SDS011;23769;52.478;13.448;2023-05-07T11:43:17;2.72;;;1.38;;
37945;SDS011;23769;52.478;13.448;2023-05-07T11:45:44;2.85;;;1.85;;
37945;SDS011;23769;52.478;13.448;2023-05-07T11:48:12;1.70;;;1.30;;
37945;SDS011;23769;52.478;13.448;2023-05-07T11:50:49;1.95;;;1.50;;
37945;SDS011;23769;52.478;13.448;2023-05-07T11:53:19;5.80;;;2.42;;
37945;SDS011;23769;52.478;13.448;2023-05-07T11:55:46;4.43;;;2.63;;
37945;SDS011;23769;52.478;13.448;2023-05-07T11:58:20;3.75;;;2.03;;
37945;SDS011;23769;52.478;13.448;2023-05-07T12:00:48;3.15;;;1.60;;
37945;SDS011;23769;52.478;13.448;2023-05-07T12:03:15;5.80;;;3.67;;
37945;SDS011;23769;52.478;13.448;2023-05-07T12:05:44;2.95;;;1.52;;
37945;SDS011;23769;52.478;13.448;2023-05-07T12:08:13;3.45;;;1.30;;
37945;SDS011;23769;52.478;13.448;2023-05-07T12:10:42;4.95;;;2.10;;
37945;SDS011;23769;52.478;13.448;2023-05-07T12:13:16;4.22;;;2.55;;
37945;SDS011;23769;52.478;13.448;2023-05-07T12:15:43;3.53;;;1.40;;
37945;SDS011;23769;52.478;13.448;2023-05-07T12:18:11;3.40;;;2.50;;
37945;SDS011;23769;52.478;13.448;2023-05-07T12:20:38;1.52;;;1.30;;
37945;SDS011;23769;52.478;13.448;2023-05-07T12:23:06;3.08;;;1.05;;
37945;SDS011;23769;52.478;13.448;2023-05-07T12:25:34;1.88;;;1.17;;
37945;SDS011;23769;52.478;13.448;2023-05-07T12:28:03;2.80;;;1.83;;
37945;SDS011;23769;52.478;13.448;2023-05-07T12:30:31;3.42;;;1.95;;
37945;SDS011;23769;52.478;13.448;2023-05-07T12:32:59;1.98;;;1.38;;
37945;SDS011;23769;52.478;13.448;2023-05-07T12:35:26;3.65;;;2.00;;
37945;SDS011;23769;52.478;13.448;2023-05-07T12:37:56;6.18;;;2.08;;
37945;SDS011;23769;52.478;13.448;2023-05-07T12:40:34;2.20;;;1.20;;
37945;SDS011;23769;52.478;13.448;2023-05-07T12:43:03;4.40;;;1.42;;
37945;SDS011;23769;52.478;13.448;2023-05-07T12:45:31;3.83;;;1.90;;
37945;SDS011;23769;52.478;13.448;2023-05-07T12:48:01;2.35;;;1.75;;
37945;SDS011;23769;52.478;13.448;2023-05-07T12:50:30;2.85;;;1.85;;
37945;SDS011;23769;52.478;13.448;2023-05-07T12:52:58;2.95;;;1.50;;
37945;SDS011;23769;52.478;13.448;2023-05-07T12:55:25;2.20;;;1.40;;
37945;SDS011;23769;52.478;13.448;2023-05-07T12:57:52;3.85;;;1.45;;
37945;SDS011;23769;52.478;13.448;2023-05-07T13:00:33;2.80;;;1.48;;
37945;SDS011;23769;52.478;13.448;2023-05-07T13:03:00;4.10;;;1.35;;
37945;SDS011;23769;52.478;13.448;2023-05-07T13:05:28;1.90;;;1.23;;
37945;SDS011;23769;52.478;13.448;2023-05-07T13:07:55;3.53;;;1.23;;
37945;SDS011;23769;52.478;13.448;2023-05-07T13:10:23;1.63;;;1.30;;
37945;SDS011;23769;52.478;13.448;2023-05-07T13:12:50;1.92;;;1.23;;
37945;SDS011;23769;52.478;13.448;2023-05-07T13:15:17;3.08;;;1.80;;
37945;SDS011;23769;52.478;13.448;2023-05-07T13:17:46;4.38;;;1.98;;
37945;SDS011;23769;52.478;13.448;2023-05-07T13:20:13;1.73;;;1.38;;
37945;SDS011;23769;52.478;13.448;2023-05-07T13:22:40;2.88;;;1.58;;
37945;SDS011;23769;52.478;13.448;2023-05-07T13:25:08;4.47;;;2.08;;
37945;SDS011;23769;52.478;13.448;2023-05-07T13:27:35;1.92;;;1.38;;
37945;SDS011;23769;52.478;13.448;2023-05-07T13:30:03;3.13;;;1.98;;
37945;SDS011;23769;52.478;13.448;2023-05-07T13:32:30;4.30;;;1.48;;
37945;SDS011;23769;52.478;13.448;2023-05-07T13:34:59;2.30;;;1.15;;
37945;SDS011;23769;52.478;13.448;2023-05-07T13:37:26;1.75;;;1.40;;
37945;SDS011;23769;52.478;13.448;2023-05-07T13:39:53;2.20;;;1.40;;
37945;SDS011;23769;52.478;13.448;2023-05-07T13:42:23;2.35;;;1.35;;
37945;SDS011;23769;52.478;13.448;2023-05-07T13:44:50;1.48;;;1.38;;
37945;SDS011;23769;52.478;13.448;2023-05-07T13:47:18;1.60;;;1.38;;
37945;SDS011;23769;52.478;13.448;2023-05-07T13:49:45;3.25;;;1.48;;
37945;SDS011;23769;52.478;13.448;2023-05-07T13:52:15;1.95;;;1.20;;
37945;SDS011;23769;52.478;13.448;2023-05-07T13:54:43;2.00;;;1.20;;
37945;SDS011;23769;52.478;13.448;2023-05-07T13:57:10;1.83;;;1.17;;
37945;SDS011;23769;52.478;13.448;2023-05-07T13:59:37;5.88;;;1.73;;
37945;SDS011;23769;52.478;13.448;2023-05-07T14:02:04;2.78;;;1.88;;
37945;SDS011;23769;52.478;13.448;2023-05-07T14:04:31;4.28;;;1.50;;
37945;SDS011;23769;52.478;13.448;2023-05-07T14:06:58;1.50;;;1.05;;
37945;SDS011;23769;52.478;13.448;2023-05-07T14:09:27;1.45;;;1.10;;
37945;SDS011;23769;52.478;13.448;2023-05-07T14:11:54;1.88;;;1.20;;
37945;SDS011;23769;52.478;13.448;2023-05-07T14:14:21;1.27;;;0.93;;
37945;SDS011;23769;52.478;13.448;2023-05-07T14:16:48;2.67;;;1.30;;
37945;SDS011;23769;52.478;13.448;2023-05-07T14:19:16;1.67;;;0.90;;
37945;SDS011;23769;52.478;13.448;2023-05-07T14:21:43;4.22;;;1.52;;
37945;SDS011;23769;52.478;13.448;2023-05-07T14:24:10;1.30;;;1.00;;
37945;SDS011;23769;52.478;13.448;2023-05-07T14:26:38;2.83;;;1.00;;
37945;SDS011;23769;52.478;13.448;2023-05-07T14:29:06;1.83;;;1.48;;
37945;SDS011;23769;52.478;13.448;2023-05-07T14:31:33;1.58;;;1.25;;
37945;SDS011;23769;52.478;13.448;2023-05-07T14:34:00;1.67;;;1.17;;
37945;SDS011;23769;52.478;13.448;2023-05-07T14:36:27;2.95;;;1.10;;